createdAt,value
2018-01-23T00:02:07.894Z,7.70
2018-01-23T00:04:35.426Z,7.60
2018-01-23T00:07:02.978Z,7.70
2018-01-23T00:09:49.948Z,7.70
2018-01-23T00:12:18.880Z,7.70
2018-01-23T00:14:46.420Z,7.70
2018-01-23T00:17:13.967Z,7.70
2018-01-23T00:19:41.497Z,7.70
2018-01-23T00:22:09.067Z,7.70
2018-01-23T00:24:36.737Z,7.70
2018-01-23T00:27:05.062Z,7.70
2018-01-23T00:29:44.091Z,7.60
2018-01-23T00:32:11.651Z,7.60
2018-01-23T00:34:39.995Z,7.60
2018-01-23T00:37:08.351Z,7.60
2018-01-23T00:39:44.551Z,7.60
2018-01-23T00:42:12.900Z,7.60
2018-01-23T00:44:41.060Z,7.60
2018-01-23T00:47:08.667Z,7.70
2018-01-23T00:49:37.056Z,7.70
2018-01-23T00:52:04.664Z,7.70
2018-01-23T00:54:32.286Z,7.70
2018-01-23T00:56:59.840Z,7.70
2018-01-23T00:59:34.190Z,7.70
2018-01-23T01:02:01.754Z,7.70
2018-01-23T01:04:29.309Z,7.70
2018-01-23T01:06:57.416Z,7.70
2018-01-23T01:09:26.021Z,7.70
2018-01-23T01:11:53.615Z,7.70
2018-01-23T01:14:21.219Z,7.70
2018-01-23T01:16:48.769Z,7.70
2018-01-23T01:22:09.388Z,7.70
2018-01-23T01:24:37.076Z,7.70
2018-01-23T01:27:04.690Z,7.70
2018-01-23T01:29:40.144Z,7.70
2018-01-23T01:32:07.708Z,7.70
2018-01-23T01:34:35.246Z,7.80
2018-01-23T01:37:03.602Z,7.70
2018-01-23T01:39:32.152Z,7.70
2018-01-23T01:41:59.712Z,7.70
2018-01-23T01:44:27.884Z,7.70
2018-01-23T01:46:55.526Z,7.70
2018-01-23T01:49:25.083Z,7.70
2018-01-23T01:51:52.651Z,7.70
2018-01-23T01:54:20.227Z,7.70
2018-01-23T01:56:47.795Z,7.70
2018-01-23T01:59:17.165Z,7.60
2018-01-23T02:01:44.725Z,7.60
2018-01-23T02:04:12.288Z,7.60
2018-01-23T02:06:39.917Z,7.60
2018-01-23T02:09:07.476Z,7.60
2018-01-23T02:11:35.022Z,7.60
2018-01-23T02:14:03.476Z,7.60
2018-01-23T02:16:31.889Z,7.60
2018-01-23T02:19:01.416Z,7.60
2018-01-23T02:21:29.632Z,7.60
2018-01-23T02:23:57.180Z,7.60
2018-01-23T02:26:24.774Z,7.60
2018-01-23T02:28:59.304Z,7.60
2018-01-23T02:31:27.621Z,7.50
2018-01-23T02:33:58.103Z,7.50
2018-01-23T02:36:27.289Z,7.50
2018-01-23T02:38:55.667Z,7.50
2018-01-23T02:41:23.239Z,7.50
2018-01-23T02:43:50.821Z,7.50
2018-01-23T02:46:19.176Z,7.50
2018-01-23T02:48:46.771Z,7.50
2018-01-23T02:51:15.640Z,7.50
2018-01-23T02:53:43.208Z,7.50
2018-01-23T02:56:10.796Z,7.50
2018-01-23T02:58:40.204Z,7.50
2018-01-23T03:01:07.758Z,7.40
2018-01-23T03:03:36.092Z,7.40
2018-01-23T03:06:03.692Z,7.40
2018-01-23T03:08:33.996Z,7.40
2018-01-23T03:11:01.545Z,7.40
2018-01-23T03:13:29.126Z,7.40
2018-01-23T03:15:56.743Z,7.40
2018-01-23T03:18:35.087Z,7.40
2018-01-23T03:21:03.575Z,7.50
2018-01-23T03:23:31.131Z,7.40
2018-01-23T03:25:58.702Z,7.40
2018-01-23T03:28:26.372Z,7.40
2018-01-23T03:30:55.222Z,7.50
2018-01-23T03:33:22.822Z,7.50
2018-01-23T03:35:50.384Z,7.50
2018-01-23T03:38:20.002Z,7.50
2018-01-23T03:40:47.558Z,7.50
2018-01-23T03:43:15.166Z,7.50
2018-01-23T03:45:42.738Z,7.50
2018-01-23T03:48:10.286Z,7.40
2018-01-23T03:50:37.854Z,7.40
2018-01-23T03:53:05.423Z,7.40
2018-01-23T03:55:33.011Z,7.40
2018-01-23T03:58:01.603Z,7.40
2018-01-23T04:00:29.162Z,7.40
2018-01-23T04:02:56.731Z,7.40
2018-01-23T04:05:24.271Z,7.30
2018-01-23T04:07:51.840Z,7.30
2018-01-23T04:10:19.431Z,7.30
2018-01-23T04:12:46.995Z,7.30
2018-01-23T04:15:15.328Z,7.40
2018-01-23T04:17:46.242Z,7.30
2018-01-23T04:20:13.795Z,7.30
2018-01-23T04:22:41.354Z,7.30
2018-01-23T04:25:09.712Z,7.30
2018-01-23T04:27:37.269Z,7.30
2018-01-23T04:30:04.852Z,7.20
2018-01-23T04:32:33.154Z,7.20
2018-01-23T04:35:00.803Z,7.20
2018-01-23T04:37:29.131Z,7.20
2018-01-23T04:39:56.689Z,7.20
2018-01-23T04:42:24.299Z,7.20
2018-01-23T04:44:52.625Z,7.10
2018-01-23T04:47:20.185Z,7.10
2018-01-23T04:49:47.773Z,7.10
2018-01-23T04:52:15.331Z,7.10
2018-01-23T04:54:42.904Z,7.20
2018-01-23T04:57:10.496Z,7.10
2018-01-23T04:59:42.018Z,7.10
2018-01-23T05:02:09.576Z,7.10
2018-01-23T05:04:37.168Z,7.10
2018-01-23T05:07:06.808Z,7.00
2018-01-23T05:09:39.396Z,7.00
2018-01-23T05:12:07.697Z,7.00
2018-01-23T05:14:35.258Z,7.10
2018-01-23T05:17:02.817Z,7.00
2018-01-23T05:19:32.319Z,7.00
2018-01-23T05:22:00.843Z,7.00
2018-01-23T05:24:29.181Z,7.00
2018-01-23T05:26:56.764Z,7.00
2018-01-23T05:29:25.151Z,7.00
2018-01-23T05:31:52.735Z,7.00
2018-01-23T05:34:21.046Z,7.10
2018-01-23T05:36:48.628Z,7.10
2018-01-23T05:39:17.332Z,7.10
2018-01-23T05:41:44.878Z,7.20
2018-01-23T05:44:12.450Z,7.20
2018-01-23T05:46:40.088Z,7.20
2018-01-23T05:49:07.654Z,7.20
2018-01-23T05:51:35.221Z,7.20
2018-01-23T05:54:02.809Z,7.20
2018-01-23T05:56:30.362Z,7.30
2018-01-23T05:58:58.959Z,7.30
2018-01-23T06:01:26.537Z,7.30
2018-01-23T06:03:54.130Z,7.30
2018-01-23T06:06:21.699Z,7.30
2018-01-23T06:08:59.996Z,7.30
2018-01-23T06:11:28.346Z,7.30
2018-01-23T06:13:55.927Z,7.30
2018-01-23T06:16:23.494Z,7.30
2018-01-23T06:19:01.773Z,7.30
2018-01-23T06:21:30.128Z,7.30
2018-01-23T06:23:57.694Z,7.30
2018-01-23T06:26:27.682Z,7.30
2018-01-23T06:28:55.278Z,7.30
2018-01-23T06:31:22.830Z,7.30
2018-01-23T06:33:51.132Z,7.20
2018-01-23T06:36:18.687Z,7.20
2018-01-23T06:38:49.371Z,7.20
2018-01-23T06:41:18.113Z,7.20
2018-01-23T06:43:45.711Z,7.20
2018-01-23T06:46:14.103Z,7.20
2018-01-23T06:48:52.975Z,7.20
2018-01-23T06:51:21.227Z,7.20
2018-01-23T06:53:48.783Z,7.20
2018-01-23T06:56:17.637Z,7.20
2018-01-23T06:58:46.066Z,7.20
2018-01-23T07:01:14.088Z,7.20
2018-01-23T07:03:41.715Z,7.20
2018-01-23T07:06:09.318Z,7.20
2018-01-23T07:08:37.806Z,7.20
2018-01-23T07:11:06.301Z,7.20
2018-01-23T07:13:35.964Z,7.20
2018-01-23T07:16:03.528Z,7.20
2018-01-23T07:18:33.054Z,7.30
2018-01-23T07:21:00.624Z,7.30
2018-01-23T07:23:28.169Z,7.30
2018-01-23T07:25:55.715Z,7.30
2018-01-23T07:28:23.309Z,7.30
2018-01-23T07:30:50.861Z,7.30
2018-01-23T07:33:18.425Z,7.30
2018-01-23T07:35:47.341Z,7.30
2018-01-23T07:38:15.661Z,7.30
2018-01-23T07:40:43.207Z,7.30
2018-01-23T07:43:10.811Z,7.30
2018-01-23T07:45:38.356Z,7.30
2018-01-23T07:48:06.003Z,7.30
2018-01-23T07:50:33.574Z,7.40
2018-01-23T07:53:01.196Z,7.40
2018-01-23T07:55:29.560Z,7.40
2018-01-23T07:57:58.263Z,7.30
2018-01-23T08:00:25.874Z,7.40
2018-01-23T08:02:53.414Z,7.40
2018-01-23T08:05:21.009Z,7.40
2018-01-23T08:07:48.579Z,7.50
2018-01-23T08:10:16.127Z,7.50
2018-01-23T08:12:43.737Z,7.50
2018-01-23T08:15:12.067Z,7.50
2018-01-23T08:17:45.627Z,7.50
2018-01-23T08:20:13.965Z,7.50
2018-01-23T08:22:41.578Z,7.50
2018-01-23T08:25:09.120Z,7.50
2018-01-23T08:27:59.397Z,7.60
2018-01-23T08:30:26.928Z,7.60
2018-01-23T08:32:54.489Z,7.60
2018-01-23T08:35:22.038Z,7.60
2018-01-23T08:37:53.270Z,7.70
2018-01-23T08:40:20.866Z,7.70
2018-01-23T08:42:48.424Z,7.70
2018-01-23T08:45:16.014Z,7.70
2018-01-23T08:47:45.617Z,7.80
2018-01-23T08:50:13.168Z,7.80
2018-01-23T08:52:40.759Z,7.80
2018-01-23T08:55:08.315Z,7.80
2018-01-23T08:57:43.407Z,7.90
2018-01-23T09:00:11.635Z,7.90
2018-01-23T09:02:39.982Z,7.90
2018-01-23T09:05:08.300Z,7.90
2018-01-23T09:07:38.565Z,8.00
2018-01-23T09:10:07.050Z,8.00
2018-01-23T09:12:34.678Z,8.00
2018-01-23T09:15:03.585Z,8.00
2018-01-23T09:17:31.170Z,8.00
2018-01-23T09:19:58.712Z,8.00
2018-01-23T09:22:26.330Z,8.00
2018-01-23T09:24:54.008Z,8.00
2018-01-23T09:27:21.562Z,8.00
2018-01-23T09:30:00.531Z,8.00
2018-01-23T09:32:28.109Z,8.00
2018-01-23T09:34:55.685Z,8.10
2018-01-23T09:37:23.260Z,8.10
2018-01-23T09:39:51.473Z,8.10
2018-01-23T09:42:19.814Z,8.10
2018-01-23T09:44:47.880Z,8.10
2018-01-23T09:47:15.935Z,8.10
2018-01-23T09:49:43.973Z,8.20
2018-01-23T09:52:12.888Z,8.20
2018-01-23T09:54:40.435Z,8.20
2018-01-23T09:57:07.981Z,8.30
2018-01-23T09:59:37.376Z,8.40
2018-01-23T10:02:04.946Z,8.40
2018-01-23T10:04:32.516Z,8.40
2018-01-23T10:07:00.886Z,8.50
2018-01-23T10:09:47.598Z,8.50
2018-01-23T10:12:15.228Z,8.60
2018-01-23T10:14:42.778Z,8.60
2018-01-23T10:17:10.368Z,8.70
2018-01-23T10:19:37.954Z,8.80
2018-01-23T10:22:06.862Z,8.90
2018-01-23T10:24:34.443Z,8.90
2018-01-23T10:27:02.017Z,9.00
2018-01-23T10:29:35.277Z,9.10
2018-01-23T10:32:03.613Z,9.10
2018-01-23T10:34:31.164Z,9.10
2018-01-23T10:36:58.719Z,9.20
2018-01-23T10:39:29.423Z,9.20
2018-01-23T10:41:57.005Z,9.30
2018-01-23T10:44:24.633Z,9.20
2018-01-23T10:46:52.998Z,9.20
2018-01-23T10:49:21.356Z,9.20
2018-01-23T10:51:48.918Z,9.20
2018-01-23T10:54:17.068Z,9.20
2018-01-23T10:56:44.636Z,9.30
2018-01-23T10:59:12.974Z,9.30
2018-01-23T11:01:41.334Z,9.40
2018-01-23T11:04:12.920Z,9.40
2018-01-23T11:06:41.262Z,9.40
2018-01-23T11:09:08.835Z,9.40
2018-01-23T11:11:36.381Z,9.40
2018-01-23T11:14:04.069Z,9.50
2018-01-23T11:16:32.707Z,9.60
2018-01-23T11:19:07.399Z,9.60
2018-01-23T11:21:35.741Z,9.60
2018-01-23T11:24:03.348Z,9.60
2018-01-23T11:26:31.475Z,9.70
2018-01-23T11:29:00.629Z,9.80
2018-01-23T11:31:29.729Z,9.80
2018-01-23T11:33:58.034Z,9.80
2018-01-23T11:36:25.692Z,9.80
2018-01-23T11:38:54.274Z,9.90
2018-01-23T11:41:21.832Z,10.00
2018-01-23T11:43:49.408Z,10.00
2018-01-23T11:46:17.143Z,10.00
2018-01-23T11:48:46.754Z,10.10
2018-01-23T11:51:14.344Z,10.20
2018-01-23T11:53:41.926Z,10.20
2018-01-23T11:56:10.224Z,10.20
2018-01-23T11:58:37.771Z,10.20
2018-01-23T12:01:06.409Z,10.20
2018-01-23T12:03:33.967Z,10.20
2018-01-23T12:06:01.521Z,10.20
2018-01-23T12:08:48.495Z,10.30
2018-01-23T12:11:16.101Z,10.30
2018-01-23T12:13:43.665Z,10.40
2018-01-23T12:16:11.242Z,10.50
2018-01-23T12:18:43.204Z,10.60
2018-01-23T12:21:10.820Z,10.70
2018-01-23T12:23:38.388Z,10.80
2018-01-23T12:26:05.928Z,10.80
2018-01-23T12:28:38.918Z,10.80
2018-01-23T12:31:06.480Z,10.80
2018-01-23T12:33:34.524Z,10.80
2018-01-23T12:36:02.120Z,10.80
2018-01-23T12:38:34.821Z,10.70
2018-01-23T12:41:02.365Z,10.70
2018-01-23T12:43:29.897Z,10.70
2018-01-23T12:45:57.461Z,10.70
2018-01-23T12:48:25.071Z,10.80
2018-01-23T12:50:52.651Z,10.90
2018-01-23T12:53:20.722Z,10.80
2018-01-23T12:55:49.085Z,10.90
2018-01-23T12:58:17.372Z,10.80
2018-01-23T13:00:45.755Z,11.00
2018-01-23T13:03:14.080Z,11.00
2018-01-23T13:05:41.679Z,11.00
2018-01-23T13:08:10.164Z,11.20
2018-01-23T13:10:37.792Z,11.10
2018-01-23T13:13:05.358Z,11.20
2018-01-23T13:15:32.904Z,11.20
2018-01-23T13:18:01.243Z,11.20
2018-01-23T13:20:30.077Z,11.20
2018-01-23T13:22:57.656Z,11.10
2018-01-23T13:25:25.370Z,11.20
2018-01-23T13:27:55.639Z,11.20
2018-01-23T13:30:23.205Z,11.20
2018-01-23T13:32:50.827Z,11.20
2018-01-23T13:35:18.411Z,11.10
2018-01-23T13:37:47.007Z,11.20
2018-01-23T13:40:14.625Z,11.10
2018-01-23T13:42:42.999Z,11.10
2018-01-23T13:45:11.324Z,11.00
2018-01-23T13:47:38.888Z,11.00
2018-01-23T13:50:06.496Z,10.90
2018-01-23T13:52:34.052Z,10.90
2018-01-23T13:55:02.392Z,10.80
2018-01-23T13:57:29.994Z,10.80
2018-01-23T13:59:57.550Z,10.80
2018-01-23T14:02:25.151Z,10.70
2018-01-23T14:04:52.716Z,10.70
2018-01-23T14:07:21.410Z,10.70
2018-01-23T14:12:49.707Z,10.50
2018-01-23T14:15:17.317Z,10.40
2018-01-23T14:17:49.959Z,10.30
2018-01-23T14:20:18.837Z,10.30
2018-01-23T14:22:47.139Z,10.10
2018-01-23T14:25:14.703Z,10.10
2018-01-23T14:27:44.326Z,10.00
2018-01-23T14:30:11.920Z,9.90
2018-01-23T14:32:40.250Z,9.80
2018-01-23T14:35:08.048Z,9.80
2018-01-23T14:37:35.656Z,9.80
2018-01-23T14:40:04.044Z,9.80
2018-01-23T14:42:31.844Z,9.80
2018-01-23T14:44:59.725Z,9.80
2018-01-23T14:47:27.340Z,9.80
2018-01-23T14:49:55.645Z,9.70
2018-01-23T14:52:23.216Z,9.70
2018-01-23T14:54:50.899Z,9.70
2018-01-23T14:57:18.507Z,9.70
2018-01-23T14:59:46.357Z,9.80
2018-01-23T15:02:14.940Z,9.80
2018-01-23T15:04:43.117Z,9.80
2018-01-23T15:09:50.275Z,9.80
2018-01-23T15:12:19.483Z,9.80
2018-01-23T15:14:47.637Z,9.80
2018-01-23T15:17:15.408Z,9.80
2018-01-23T15:19:58.086Z,9.70
2018-01-23T15:22:26.496Z,9.60
2018-01-23T15:24:54.055Z,9.60
2018-01-23T15:27:21.609Z,9.50
2018-01-23T15:29:52.720Z,9.50
2018-01-23T15:32:20.361Z,9.50
2018-01-23T15:34:47.923Z,9.50
2018-01-23T15:37:16.451Z,9.50
2018-01-23T15:39:44.812Z,9.50
2018-01-23T15:42:13.087Z,9.50
2018-01-23T15:44:40.633Z,9.50
2018-01-23T15:47:09.074Z,9.50
2018-01-23T15:49:36.846Z,9.50
2018-01-23T15:52:04.423Z,9.50
2018-01-23T15:54:54.206Z,9.50
2018-01-23T15:57:22.216Z,9.50
2018-01-23T15:59:49.785Z,9.50
2018-01-23T16:02:17.386Z,9.60
2018-01-23T16:04:45.344Z,9.60
2018-01-23T16:07:13.664Z,9.70
2018-01-23T16:09:42.298Z,9.70
2018-01-23T16:12:10.647Z,9.80
2018-01-23T16:14:38.209Z,9.80
2018-01-23T16:17:05.859Z,9.80
2018-01-23T16:19:39.623Z,9.80
2018-01-23T16:22:07.224Z,9.80
2018-01-23T16:24:34.884Z,9.80
2018-01-23T16:27:02.450Z,9.80
2018-01-23T16:29:37.980Z,9.90
2018-01-23T16:32:05.654Z,9.90
2018-01-23T16:34:33.211Z,9.90
2018-01-23T16:37:00.818Z,9.90
2018-01-23T16:39:35.484Z,9.90
2018-01-23T16:42:03.130Z,9.90
2018-01-23T16:44:30.698Z,9.90
2018-01-23T16:46:59.072Z,9.90
2018-01-23T16:49:39.741Z,9.90
2018-01-23T16:52:07.444Z,9.90
2018-01-23T16:54:35.015Z,9.90
2018-01-23T16:57:02.610Z,9.90
2018-01-23T16:59:49.755Z,9.90
2018-01-23T17:02:18.123Z,9.90
2018-01-23T17:04:46.551Z,9.90
2018-01-23T17:07:14.158Z,9.80
2018-01-23T17:09:49.555Z,9.80
2018-01-23T17:12:17.298Z,9.80
2018-01-23T17:14:49.029Z,9.80
2018-01-23T17:17:16.720Z,9.80
2018-01-23T17:19:44.408Z,9.80
2018-01-23T17:22:12.182Z,9.80
2018-01-23T17:24:40.578Z,9.90
2018-01-23T17:27:08.796Z,9.90
2018-01-23T17:29:46.716Z,9.90
2018-01-23T17:32:15.526Z,9.90
2018-01-23T17:34:47.129Z,9.80
2018-01-23T17:37:17.232Z,9.90
2018-01-23T17:39:44.834Z,9.80
2018-01-23T17:42:13.252Z,9.90
2018-01-23T17:44:40.854Z,9.80
2018-01-23T17:47:08.419Z,9.90
2018-01-23T17:49:36.050Z,9.90
2018-01-23T17:52:03.669Z,9.90
2018-01-23T17:54:32.939Z,9.90
2018-01-23T17:57:00.536Z,9.90
2018-01-23T17:59:30.100Z,10.00
2018-01-23T18:01:58.529Z,9.90
2018-01-23T18:04:26.267Z,9.90
2018-01-23T18:06:53.964Z,9.90
2018-01-23T18:09:23.744Z,9.90
2018-01-23T18:11:51.576Z,9.90
2018-01-23T18:14:19.191Z,9.90
2018-01-23T18:16:47.641Z,9.90
2018-01-23T18:19:16.316Z,9.80
2018-01-23T18:21:44.176Z,9.80
2018-01-23T18:24:12.220Z,9.80
2018-01-23T18:26:39.887Z,9.80
2018-01-23T18:29:10.679Z,9.80
2018-01-23T18:31:38.343Z,9.90
2018-01-23T18:34:06.049Z,9.80
2018-01-23T18:36:34.421Z,9.80
2018-01-23T18:39:02.068Z,9.80
2018-01-23T18:41:29.702Z,9.90
2018-01-23T18:43:57.300Z,9.90
2018-01-23T18:46:25.053Z,9.90
2018-01-23T18:48:52.727Z,9.90
2018-01-23T18:51:21.062Z,10.00
2018-01-23T18:53:49.042Z,9.90
2018-01-23T18:56:16.684Z,9.90
2018-01-23T18:58:44.278Z,9.90
2018-01-23T19:01:11.941Z,9.90
2018-01-23T19:03:41.876Z,9.90
2018-01-23T19:06:09.524Z,9.90
2018-01-23T19:08:38.166Z,9.80
2018-01-23T19:11:06.722Z,9.80
2018-01-23T19:13:35.254Z,9.80
2018-01-23T19:16:03.331Z,9.70
2018-01-23T19:18:40.717Z,9.70
2018-01-23T19:21:08.350Z,9.70
2018-01-23T19:23:35.936Z,9.70
2018-01-23T19:26:03.565Z,9.70
2018-01-23T19:28:37.651Z,9.70
2018-01-23T19:31:05.439Z,9.70
2018-01-23T19:33:33.075Z,9.70
2018-01-23T19:36:00.810Z,9.70
2018-01-23T19:38:29.851Z,9.70
2018-01-23T19:40:57.530Z,9.80
2018-01-23T19:43:28.243Z,9.80
2018-01-23T19:45:56.144Z,9.80
2018-01-23T19:48:24.326Z,9.80
2018-01-23T19:50:51.958Z,9.80
2018-01-23T19:53:21.876Z,9.80
2018-01-23T19:55:49.850Z,9.80
2018-01-23T19:58:17.622Z,9.80
2018-01-23T20:00:45.231Z,9.80
2018-01-23T20:03:13.918Z,9.80
2018-01-23T20:05:41.578Z,9.80
2018-01-23T20:08:14.434Z,9.80
2018-01-23T20:10:43.731Z,9.90
2018-01-23T20:13:11.351Z,9.80
2018-01-23T20:15:40.087Z,9.90
2018-01-23T20:18:09.871Z,9.90
2018-01-23T20:20:37.870Z,9.90
2018-01-23T20:23:06.723Z,9.90
2018-01-23T20:25:34.439Z,10.00
2018-01-23T20:28:03.080Z,10.00
2018-01-23T20:30:31.108Z,10.00
2018-01-23T20:32:59.596Z,10.00
2018-01-23T20:35:27.248Z,10.00
2018-01-23T20:37:57.670Z,10.10
2018-01-23T20:40:25.340Z,10.10
2018-01-23T20:42:54.823Z,10.10
2018-01-23T20:45:22.749Z,10.10
2018-01-23T20:47:50.365Z,10.20
2018-01-23T20:50:18.025Z,10.20
2018-01-23T20:52:46.323Z,10.20
2018-01-23T20:55:13.962Z,10.20
2018-01-23T20:57:41.598Z,10.20
2018-01-23T21:00:09.995Z,10.20
2018-01-23T21:02:37.670Z,10.20
2018-01-23T21:05:05.310Z,10.20
2018-01-23T21:07:33.705Z,10.20
2018-01-23T21:10:04.738Z,10.30
2018-01-23T21:12:40.257Z,10.30
2018-01-23T21:15:07.910Z,10.30
2018-01-23T21:17:36.024Z,10.30
2018-01-23T21:20:03.838Z,10.40
2018-01-23T21:22:31.738Z,10.40
2018-01-23T21:24:59.523Z,10.40
2018-01-23T21:27:27.223Z,10.40
2018-01-23T21:29:55.665Z,10.50
2018-01-23T21:32:23.625Z,10.40
2018-01-23T21:34:51.311Z,10.50
2018-01-23T21:37:22.669Z,10.50
2018-01-23T21:39:50.448Z,10.60
2018-01-23T21:42:19.232Z,10.60
2018-01-23T21:44:46.891Z,10.50
2018-01-23T21:47:15.604Z,10.50
2018-01-23T21:49:44.060Z,10.50
2018-01-23T21:52:11.728Z,10.50
2018-01-23T21:54:39.780Z,10.50
2018-01-23T21:57:07.414Z,10.50
2018-01-23T21:59:35.190Z,10.50
2018-01-23T22:02:03.254Z,10.50
2018-01-23T22:04:31.140Z,10.50
2018-01-23T22:06:58.852Z,10.40
2018-01-23T22:09:26.477Z,10.40
2018-01-23T22:11:54.166Z,10.50
2018-01-23T22:14:21.965Z,10.50
2018-01-23T22:16:50.119Z,10.40
2018-01-23T22:19:17.783Z,10.50
2018-01-23T22:21:46.223Z,10.50
2018-01-23T22:24:13.800Z,10.50
2018-01-23T22:26:41.434Z,10.60
2018-01-23T22:29:09.953Z,10.60
2018-01-23T22:31:37.578Z,10.60
2018-01-23T22:34:05.674Z,10.60
2018-01-23T22:36:34.264Z,10.60
2018-01-23T22:39:01.829Z,10.70
2018-01-23T22:41:29.474Z,10.70
2018-01-23T22:43:57.058Z,10.70
2018-01-23T22:46:24.639Z,10.80
2018-01-23T22:48:52.226Z,10.80
2018-01-23T22:51:20.161Z,10.80
2018-01-23T22:53:48.405Z,10.80
2018-01-23T22:56:15.982Z,10.90
2018-01-23T22:58:44.337Z,10.80
2018-01-23T23:01:12.008Z,10.80
2018-01-23T23:03:39.587Z,10.80
2018-01-23T23:06:07.203Z,10.80
2018-01-23T23:08:36.789Z,10.80
2018-01-23T23:11:05.143Z,10.80
2018-01-23T23:13:32.755Z,10.80
2018-01-23T23:16:01.174Z,10.90
2018-01-23T23:18:31.715Z,10.90
2018-01-23T23:20:59.416Z,10.90
2018-01-23T23:23:26.998Z,10.90
2018-01-23T23:25:55.329Z,10.90
2018-01-23T23:28:26.576Z,10.90
2018-01-23T23:30:54.747Z,10.90
2018-01-23T23:33:22.339Z,10.90
2018-01-23T23:35:49.920Z,10.90
2018-01-23T23:38:19.509Z,10.90
2018-01-23T23:40:47.081Z,10.90
2018-01-23T23:43:14.677Z,10.90
2018-01-23T23:45:42.237Z,11.00
2018-01-23T23:48:14.665Z,10.90
2018-01-23T23:50:42.247Z,10.90
2018-01-23T23:53:09.835Z,10.90
2018-01-23T23:55:37.439Z,10.90
2018-01-23T23:58:06.056Z,10.90
